sensor_id;sensor_type;location;lat;lon;timestamp;P1;durP1;ratioP1;P2;durP2;ratioP2
58384;SDS011;44185;47.844;8.966;2023-12-29T00:00:30;12.90;;;7.00;;
58384;SDS011;44185;47.844;8.966;2023-12-29T00:02:56;15.10;;;7.53;;
58384;SDS011;44185;47.844;8.966;2023-12-29T00:05:21;13.23;;;7.13;;
58384;SDS011;44185;47.844;8.966;2023-12-29T00:07:47;12.52;;;6.70;;
58384;SDS011;44185;47.844;8.966;2023-12-29T00:10:14;13.10;;;6.60;;
58384;SDS011;44185;47.844;8.966;2023-12-29T00:12:39;11.88;;;7.15;;
58384;SDS011;44185;47.844;8.966;2023-12-29T00:15:05;13.68;;;7.68;;
58384;SDS011;44185;47.844;8.966;2023-12-29T00:17:31;14.98;;;6.95;;
58384;SDS011;44185;47.844;8.966;2023-12-29T00:19:57;14.88;;;7.75;;
58384;SDS011;44185;47.844;8.966;2023-12-29T00:22:22;12.30;;;6.70;;
58384;SDS011;44185;47.844;8.966;2023-12-29T00:24:48;14.18;;;7.47;;
58384;SDS011;44185;47.844;8.966;2023-12-29T00:27:15;13.52;;;7.65;;
58384;SDS011;44185;47.844;8.966;2023-12-29T00:29:40;15.15;;;7.20;;
58384;SDS011;44185;47.844;8.966;2023-12-29T00:32:06;13.70;;;7.78;;
58384;SDS011;44185;47.844;8.966;2023-12-29T00:34:31;14.45;;;7.80;;
58384;SDS011;44185;47.844;8.966;2023-12-29T00:36:57;14.77;;;7.47;;
58384;SDS011;44185;47.844;8.966;2023-12-29T00:39:22;12.32;;;6.97;;
58384;SDS011;44185;47.844;8.966;2023-12-29T00:41:50;15.23;;;7.28;;
58384;SDS011;44185;47.844;8.966;2023-12-29T00:44:16;12.20;;;7.03;;
58384;SDS011;44185;47.844;8.966;2023-12-29T00:46:42;14.00;;;7.70;;
58384;SDS011;44185;47.844;8.966;2023-12-29T00:49:07;14.80;;;8.10;;
58384;SDS011;44185;47.844;8.966;2023-12-29T00:51:33;16.98;;;9.00;;
58384;SDS011;44185;47.844;8.966;2023-12-29T00:54:04;21.27;;;9.90;;
58384;SDS011;44185;47.844;8.966;2023-12-29T00:56:29;19.23;;;10.02;;
58384;SDS011;44185;47.844;8.966;2023-12-29T00:58:55;17.27;;;9.60;;
58384;SDS011;44185;47.844;8.966;2023-12-29T01:01:22;17.10;;;9.40;;
58384;SDS011;44185;47.844;8.966;2023-12-29T01:03:48;12.77;;;7.05;;
58384;SDS011;44185;47.844;8.966;2023-12-29T01:06:13;15.45;;;8.65;;
58384;SDS011;44185;47.844;8.966;2023-12-29T01:08:39;16.23;;;8.75;;
58384;SDS011;44185;47.844;8.966;2023-12-29T01:11:04;18.45;;;8.20;;
58384;SDS011;44185;47.844;8.966;2023-12-29T01:13:30;16.38;;;7.90;;
58384;SDS011;44185;47.844;8.966;2023-12-29T01:15:56;14.63;;;7.72;;
58384;SDS011;44185;47.844;8.966;2023-12-29T01:18:23;13.07;;;7.00;;
58384;SDS011;44185;47.844;8.966;2023-12-29T01:20:48;13.68;;;7.32;;
58384;SDS011;44185;47.844;8.966;2023-12-29T01:23:14;13.05;;;6.95;;
58384;SDS011;44185;47.844;8.966;2023-12-29T01:25:39;13.80;;;6.70;;
58384;SDS011;44185;47.844;8.966;2023-12-29T01:28:05;11.57;;;6.63;;
58384;SDS011;44185;47.844;8.966;2023-12-29T01:30:30;10.93;;;5.82;;
58384;SDS011;44185;47.844;8.966;2023-12-29T01:32:56;12.73;;;6.50;;
58384;SDS011;44185;47.844;8.966;2023-12-29T01:35:23;12.10;;;6.50;;
58384;SDS011;44185;47.844;8.966;2023-12-29T01:37:48;12.70;;;6.63;;
58384;SDS011;44185;47.844;8.966;2023-12-29T01:40:14;16.15;;;8.23;;
58384;SDS011;44185;47.844;8.966;2023-12-29T01:42:40;14.02;;;7.40;;
58384;SDS011;44185;47.844;8.966;2023-12-29T01:45:06;12.85;;;7.25;;
58384;SDS011;44185;47.844;8.966;2023-12-29T01:47:44;12.20;;;6.97;;
58384;SDS011;44185;47.844;8.966;2023-12-29T01:50:11;12.55;;;6.88;;
58384;SDS011;44185;47.844;8.966;2023-12-29T01:52:38;15.20;;;7.38;;
58384;SDS011;44185;47.844;8.966;2023-12-29T01:55:05;16.52;;;6.90;;
58384;SDS011;44185;47.844;8.966;2023-12-29T01:57:34;13.73;;;7.10;;
58384;SDS011;44185;47.844;8.966;2023-12-29T02:00:00;13.80;;;7.45;;
58384;SDS011;44185;47.844;8.966;2023-12-29T02:02:25;16.83;;;8.15;;
58384;SDS011;44185;47.844;8.966;2023-12-29T02:04:51;14.27;;;8.15;;
58384;SDS011;44185;47.844;8.966;2023-12-29T02:07:16;16.08;;;8.75;;
58384;SDS011;44185;47.844;8.966;2023-12-29T02:09:45;15.50;;;8.77;;
58384;SDS011;44185;47.844;8.966;2023-12-29T02:12:11;14.80;;;7.82;;
58384;SDS011;44185;47.844;8.966;2023-12-29T02:14:36;15.27;;;8.10;;
58384;SDS011;44185;47.844;8.966;2023-12-29T02:17:06;15.27;;;8.23;;
58384;SDS011;44185;47.844;8.966;2023-12-29T02:19:38;17.35;;;7.53;;
58384;SDS011;44185;47.844;8.966;2023-12-29T02:22:05;15.95;;;7.53;;
58384;SDS011;44185;47.844;8.966;2023-12-29T02:24:32;13.32;;;7.07;;
58384;SDS011;44185;47.844;8.966;2023-12-29T02:27:02;11.70;;;6.43;;
58384;SDS011;44185;47.844;8.966;2023-12-29T02:29:36;13.38;;;6.82;;
58384;SDS011;44185;47.844;8.966;2023-12-29T02:32:05;14.75;;;7.28;;
58384;SDS011;44185;47.844;8.966;2023-12-29T02:34:36;14.93;;;6.82;;
58384;SDS011;44185;47.844;8.966;2023-12-29T02:37:05;13.77;;;6.95;;
58384;SDS011;44185;47.844;8.966;2023-12-29T02:39:32;14.90;;;7.63;;
58384;SDS011;44185;47.844;8.966;2023-12-29T02:41:59;12.45;;;6.72;;
58384;SDS011;44185;47.844;8.966;2023-12-29T02:44:25;14.43;;;7.55;;
58384;SDS011;44185;47.844;8.966;2023-12-29T02:46:50;13.35;;;7.30;;
58384;SDS011;44185;47.844;8.966;2023-12-29T02:49:16;14.40;;;7.60;;
58384;SDS011;44185;47.844;8.966;2023-12-29T02:51:41;12.90;;;5.90;;
58384;SDS011;44185;47.844;8.966;2023-12-29T02:54:07;13.88;;;6.60;;
58384;SDS011;44185;47.844;8.966;2023-12-29T02:56:32;13.85;;;6.95;;
58384;SDS011;44185;47.844;8.966;2023-12-29T02:58:59;12.65;;;7.25;;
58384;SDS011;44185;47.844;8.966;2023-12-29T03:01:25;15.98;;;7.25;;
58384;SDS011;44185;47.844;8.966;2023-12-29T03:03:50;14.20;;;6.55;;
58384;SDS011;44185;47.844;8.966;2023-12-29T03:06:16;11.80;;;6.55;;
58384;SDS011;44185;47.844;8.966;2023-12-29T03:08:41;12.45;;;6.45;;
58384;SDS011;44185;47.844;8.966;2023-12-29T03:11:07;13.77;;;6.47;;
58384;SDS011;44185;47.844;8.966;2023-12-29T03:13:32;12.13;;;6.57;;
58384;SDS011;44185;47.844;8.966;2023-12-29T03:15:59;12.88;;;7.00;;
58384;SDS011;44185;47.844;8.966;2023-12-29T03:18:24;13.63;;;7.60;;
58384;SDS011;44185;47.844;8.966;2023-12-29T03:20:50;12.55;;;5.93;;
58384;SDS011;44185;47.844;8.966;2023-12-29T03:23:15;13.05;;;6.10;;
58384;SDS011;44185;47.844;8.966;2023-12-29T03:25:41;13.20;;;6.85;;
58384;SDS011;44185;47.844;8.966;2023-12-29T03:28:06;12.95;;;6.88;;
58384;SDS011;44185;47.844;8.966;2023-12-29T03:30:32;14.02;;;6.45;;
58384;SDS011;44185;47.844;8.966;2023-12-29T03:32:58;13.40;;;6.50;;
58384;SDS011;44185;47.844;8.966;2023-12-29T03:35:24;13.13;;;6.72;;
58384;SDS011;44185;47.844;8.966;2023-12-29T03:37:49;13.70;;;6.25;;
58384;SDS011;44185;47.844;8.966;2023-12-29T03:40:15;11.90;;;5.63;;
58384;SDS011;44185;47.844;8.966;2023-12-29T03:42:41;16.45;;;7.00;;
58384;SDS011;44185;47.844;8.966;2023-12-29T03:45:07;13.10;;;6.85;;
58384;SDS011;44185;47.844;8.966;2023-12-29T03:47:33;10.38;;;6.28;;
58384;SDS011;44185;47.844;8.966;2023-12-29T03:50:00;15.02;;;7.25;;
58384;SDS011;44185;47.844;8.966;2023-12-29T03:52:26;15.70;;;7.40;;
58384;SDS011;44185;47.844;8.966;2023-12-29T03:54:51;14.00;;;7.25;;
58384;SDS011;44185;47.844;8.966;2023-12-29T03:57:16;13.80;;;7.15;;
58384;SDS011;44185;47.844;8.966;2023-12-29T03:59:42;11.93;;;6.55;;
58384;SDS011;44185;47.844;8.966;2023-12-29T04:02:07;13.40;;;7.18;;
58384;SDS011;44185;47.844;8.966;2023-12-29T04:04:35;13.93;;;7.53;;
58384;SDS011;44185;47.844;8.966;2023-12-29T04:07:03;13.65;;;6.78;;
58384;SDS011;44185;47.844;8.966;2023-12-29T04:09:28;14.15;;;6.70;;
58384;SDS011;44185;47.844;8.966;2023-12-29T04:11:54;14.55;;;7.38;;
58384;SDS011;44185;47.844;8.966;2023-12-29T04:14:19;13.77;;;7.03;;
58384;SDS011;44185;47.844;8.966;2023-12-29T04:16:45;12.43;;;6.78;;
58384;SDS011;44185;47.844;8.966;2023-12-29T04:19:10;12.80;;;6.88;;
58384;SDS011;44185;47.844;8.966;2023-12-29T04:21:36;12.93;;;6.28;;
58384;SDS011;44185;47.844;8.966;2023-12-29T04:24:03;11.98;;;7.00;;
58384;SDS011;44185;47.844;8.966;2023-12-29T04:26:29;11.10;;;6.38;;
58384;SDS011;44185;47.844;8.966;2023-12-29T04:28:54;14.10;;;6.25;;
58384;SDS011;44185;47.844;8.966;2023-12-29T04:31:20;12.20;;;6.10;;
58384;SDS011;44185;47.844;8.966;2023-12-29T04:33:45;14.75;;;6.47;;
58384;SDS011;44185;47.844;8.966;2023-12-29T04:36:11;13.05;;;6.65;;
58384;SDS011;44185;47.844;8.966;2023-12-29T04:38:38;14.60;;;6.82;;
58384;SDS011;44185;47.844;8.966;2023-12-29T04:41:05;14.48;;;6.18;;
58384;SDS011;44185;47.844;8.966;2023-12-29T04:43:31;12.88;;;6.90;;
58384;SDS011;44185;47.844;8.966;2023-12-29T04:45:56;13.82;;;6.88;;
58384;SDS011;44185;47.844;8.966;2023-12-29T04:48:22;13.20;;;6.65;;
58384;SDS011;44185;47.844;8.966;2023-12-29T04:50:47;13.57;;;6.53;;
58384;SDS011;44185;47.844;8.966;2023-12-29T04:53:12;13.45;;;6.18;;
58384;SDS011;44185;47.844;8.966;2023-12-29T04:55:38;15.57;;;7.00;;
58384;SDS011;44185;47.844;8.966;2023-12-29T04:58:05;15.50;;;7.32;;
58384;SDS011;44185;47.844;8.966;2023-12-29T05:00:30;14.98;;;7.60;;
58384;SDS011;44185;47.844;8.966;2023-12-29T05:02:56;16.95;;;6.93;;
58384;SDS011;44185;47.844;8.966;2023-12-29T05:05:21;17.88;;;7.75;;
58384;SDS011;44185;47.844;8.966;2023-12-29T05:07:46;15.48;;;6.15;;
58384;SDS011;44185;47.844;8.966;2023-12-29T05:10:12;15.35;;;6.78;;
58384;SDS011;44185;47.844;8.966;2023-12-29T05:12:37;15.07;;;7.00;;
58384;SDS011;44185;47.844;8.966;2023-12-29T05:15:05;14.60;;;7.15;;
58384;SDS011;44185;47.844;8.966;2023-12-29T05:17:31;12.40;;;6.57;;
58384;SDS011;44185;47.844;8.966;2023-12-29T05:19:57;11.88;;;6.07;;
58384;SDS011;44185;47.844;8.966;2023-12-29T05:22:22;9.65;;;4.88;;
58384;SDS011;44185;47.844;8.966;2023-12-29T05:24:47;12.93;;;5.72;;
58384;SDS011;44185;47.844;8.966;2023-12-29T05:27:13;8.13;;;4.28;;
58384;SDS011;44185;47.844;8.966;2023-12-29T05:29:38;8.68;;;4.80;;
58384;SDS011;44185;47.844;8.966;2023-12-29T05:32:06;10.00;;;4.40;;
58384;SDS011;44185;47.844;8.966;2023-12-29T05:34:31;8.43;;;4.45;;
58384;SDS011;44185;47.844;8.966;2023-12-29T05:36:56;9.75;;;4.97;;
58384;SDS011;44185;47.844;8.966;2023-12-29T05:39:22;6.82;;;3.80;;
58384;SDS011;44185;47.844;8.966;2023-12-29T05:41:47;5.82;;;3.58;;
58384;SDS011;44185;47.844;8.966;2023-12-29T05:44:13;4.28;;;3.85;;
58384;SDS011;44185;47.844;8.966;2023-12-29T05:46:38;7.28;;;3.80;;
58384;SDS011;44185;47.844;8.966;2023-12-29T05:49:05;10.50;;;5.10;;
58384;SDS011;44185;47.844;8.966;2023-12-29T05:51:31;10.15;;;5.18;;
58384;SDS011;44185;47.844;8.966;2023-12-29T05:53:56;14.25;;;5.38;;
58384;SDS011;44185;47.844;8.966;2023-12-29T05:56:22;8.88;;;4.68;;
58384;SDS011;44185;47.844;8.966;2023-12-29T05:58:47;8.05;;;4.80;;
58384;SDS011;44185;47.844;8.966;2023-12-29T06:01:13;8.90;;;4.93;;
58384;SDS011;44185;47.844;8.966;2023-12-29T06:03:38;7.07;;;4.05;;
58384;SDS011;44185;47.844;8.966;2023-12-29T06:06:05;8.90;;;4.28;;
58384;SDS011;44185;47.844;8.966;2023-12-29T06:08:30;10.98;;;4.95;;
58384;SDS011;44185;47.844;8.966;2023-12-29T06:10:56;9.52;;;4.93;;
58384;SDS011;44185;47.844;8.966;2023-12-29T06:13:21;7.78;;;4.40;;
58384;SDS011;44185;47.844;8.966;2023-12-29T06:15:47;9.88;;;4.95;;
58384;SDS011;44185;47.844;8.966;2023-12-29T06:18:13;11.23;;;5.40;;
58384;SDS011;44185;47.844;8.966;2023-12-29T06:20:38;12.35;;;5.47;;
58384;SDS011;44185;47.844;8.966;2023-12-29T06:23:05;14.10;;;5.07;;
58384;SDS011;44185;47.844;8.966;2023-12-29T06:25:30;10.95;;;5.15;;
58384;SDS011;44185;47.844;8.966;2023-12-29T06:27:56;10.48;;;5.38;;
58384;SDS011;44185;47.844;8.966;2023-12-29T06:30:21;9.35;;;5.32;;
58384;SDS011;44185;47.844;8.966;2023-12-29T06:32:47;10.13;;;5.85;;
58384;SDS011;44185;47.844;8.966;2023-12-29T06:35:12;12.50;;;5.60;;
58384;SDS011;44185;47.844;8.966;2023-12-29T06:37:38;11.23;;;5.53;;
58384;SDS011;44185;47.844;8.966;2023-12-29T06:40:05;11.70;;;5.28;;
58384;SDS011;44185;47.844;8.966;2023-12-29T06:42:32;10.38;;;5.20;;
58384;SDS011;44185;47.844;8.966;2023-12-29T06:44:57;9.82;;;5.35;;
58384;SDS011;44185;47.844;8.966;2023-12-29T06:47:23;9.70;;;4.93;;
58384;SDS011;44185;47.844;8.966;2023-12-29T06:49:48;11.73;;;5.43;;
58384;SDS011;44185;47.844;8.966;2023-12-29T06:52:14;11.13;;;5.85;;
58384;SDS011;44185;47.844;8.966;2023-12-29T06:54:39;9.95;;;5.60;;
58384;SDS011;44185;47.844;8.966;2023-12-29T06:57:06;14.40;;;5.95;;
58384;SDS011;44185;47.844;8.966;2023-12-29T06:59:31;11.55;;;5.38;;
58384;SDS011;44185;47.844;8.966;2023-12-29T07:01:57;9.02;;;5.07;;
58384;SDS011;44185;47.844;8.966;2023-12-29T07:04:22;11.10;;;5.25;;
58384;SDS011;44185;47.844;8.966;2023-12-29T07:06:48;9.95;;;5.45;;
58384;SDS011;44185;47.844;8.966;2023-12-29T07:09:13;11.10;;;5.85;;
58384;SDS011;44185;47.844;8.966;2023-12-29T07:11:39;9.98;;;5.07;;
58384;SDS011;44185;47.844;8.966;2023-12-29T07:14:06;9.38;;;4.95;;
58384;SDS011;44185;47.844;8.966;2023-12-29T07:16:31;10.77;;;6.47;;
58384;SDS011;44185;47.844;8.966;2023-12-29T07:18:57;11.82;;;5.70;;
58384;SDS011;44185;47.844;8.966;2023-12-29T07:21:22;10.38;;;5.65;;
58384;SDS011;44185;47.844;8.966;2023-12-29T07:23:48;12.48;;;5.03;;
58384;SDS011;44185;47.844;8.966;2023-12-29T07:26:13;9.63;;;4.63;;
58384;SDS011;44185;47.844;8.966;2023-12-29T07:28:39;10.40;;;4.70;;
58384;SDS011;44185;47.844;8.966;2023-12-29T07:31:05;10.55;;;4.88;;
58384;SDS011;44185;47.844;8.966;2023-12-29T07:33:31;9.05;;;4.95;;
58384;SDS011;44185;47.844;8.966;2023-12-29T07:35:56;10.60;;;4.55;;
58384;SDS011;44185;47.844;8.966;2023-12-29T07:38:22;10.55;;;4.90;;
58384;SDS011;44185;47.844;8.966;2023-12-29T07:40:49;9.95;;;4.82;;
58384;SDS011;44185;47.844;8.966;2023-12-29T07:43:14;9.90;;;4.70;;
58384;SDS011;44185;47.844;8.966;2023-12-29T07:45:40;7.43;;;4.30;;
58384;SDS011;44185;47.844;8.966;2023-12-29T07:48:07;8.57;;;4.40;;
58384;SDS011;44185;47.844;8.966;2023-12-29T07:50:32;7.07;;;3.55;;
58384;SDS011;44185;47.844;8.966;2023-12-29T07:52:58;9.98;;;5.20;;
58384;SDS011;44185;47.844;8.966;2023-12-29T07:55:23;6.50;;;3.60;;
58384;SDS011;44185;47.844;8.966;2023-12-29T07:57:49;9.98;;;5.15;;
58384;SDS011;44185;47.844;8.966;2023-12-29T08:00:14;9.88;;;5.20;;
58384;SDS011;44185;47.844;8.966;2023-12-29T08:02:40;7.72;;;4.65;;
58384;SDS011;44185;47.844;8.966;2023-12-29T08:05:07;7.90;;;3.72;;
58384;SDS011;44185;47.844;8.966;2023-12-29T08:07:33;6.97;;;3.55;;
58384;SDS011;44185;47.844;8.966;2023-12-29T08:09:58;8.02;;;4.47;;
58384;SDS011;44185;47.844;8.966;2023-12-29T08:12:24;8.27;;;4.22;;
58384;SDS011;44185;47.844;8.966;2023-12-29T08:14:49;6.43;;;4.53;;
58384;SDS011;44185;47.844;8.966;2023-12-29T08:17:15;10.40;;;4.90;;
58384;SDS011;44185;47.844;8.966;2023-12-29T08:19:40;8.90;;;4.95;;
58384;SDS011;44185;47.844;8.966;2023-12-29T08:22:07;11.32;;;5.30;;
58384;SDS011;44185;47.844;8.966;2023-12-29T08:24:33;9.63;;;4.97;;
58384;SDS011;44185;47.844;8.966;2023-12-29T08:26:58;10.55;;;5.90;;
58384;SDS011;44185;47.844;8.966;2023-12-29T08:29:24;13.90;;;5.40;;
58384;SDS011;44185;47.844;8.966;2023-12-29T08:31:49;9.63;;;4.82;;
58384;SDS011;44185;47.844;8.966;2023-12-29T08:34:14;11.73;;;5.13;;
58384;SDS011;44185;47.844;8.966;2023-12-29T08:36:40;10.55;;;5.40;;
58384;SDS011;44185;47.844;8.966;2023-12-29T08:39:07;9.75;;;5.40;;
58384;SDS011;44185;47.844;8.966;2023-12-29T08:41:33;12.25;;;5.90;;
58384;SDS011;44185;47.844;8.966;2023-12-29T08:43:58;12.65;;;6.38;;
58384;SDS011;44185;47.844;8.966;2023-12-29T08:46:24;16.30;;;5.70;;
58384;SDS011;44185;47.844;8.966;2023-12-29T08:48:49;11.68;;;5.65;;
58384;SDS011;44185;47.844;8.966;2023-12-29T08:51:16;11.07;;;5.25;;
58384;SDS011;44185;47.844;8.966;2023-12-29T08:53:41;13.80;;;6.00;;
58384;SDS011;44185;47.844;8.966;2023-12-29T08:56:08;10.13;;;5.45;;
58384;SDS011;44185;47.844;8.966;2023-12-29T08:58:33;12.05;;;6.10;;
58384;SDS011;44185;47.844;8.966;2023-12-29T09:00:59;11.32;;;5.30;;
58384;SDS011;44185;47.844;8.966;2023-12-29T09:03:24;9.13;;;5.18;;
58384;SDS011;44185;47.844;8.966;2023-12-29T09:05:50;13.38;;;5.80;;
58384;SDS011;44185;47.844;8.966;2023-12-29T09:08:15;6.28;;;3.70;;
58384;SDS011;44185;47.844;8.966;2023-12-29T09:10:41;11.75;;;5.72;;
58384;SDS011;44185;47.844;8.966;2023-12-29T09:13:08;11.65;;;5.95;;
58384;SDS011;44185;47.844;8.966;2023-12-29T09:15:34;12.98;;;6.35;;
58384;SDS011;44185;47.844;8.966;2023-12-29T09:17:59;9.90;;;5.25;;
58384;SDS011;44185;47.844;8.966;2023-12-29T09:20:25;13.68;;;6.47;;
58384;SDS011;44185;47.844;8.966;2023-12-29T09:22:50;12.55;;;5.78;;
58384;SDS011;44185;47.844;8.966;2023-12-29T09:25:16;23.88;;;14.20;;
58384;SDS011;44185;47.844;8.966;2023-12-29T09:27:41;20.05;;;9.95;;
58384;SDS011;44185;47.844;8.966;2023-12-29T09:30:09;15.65;;;7.13;;
58384;SDS011;44185;47.844;8.966;2023-12-29T09:32:35;10.60;;;5.75;;
58384;SDS011;44185;47.844;8.966;2023-12-29T09:35:00;10.23;;;5.20;;
58384;SDS011;44185;47.844;8.966;2023-12-29T09:37:26;8.25;;;4.15;;
58384;SDS011;44185;47.844;8.966;2023-12-29T09:39:51;9.38;;;4.85;;
58384;SDS011;44185;47.844;8.966;2023-12-29T09:42:18;10.00;;;5.45;;
58384;SDS011;44185;47.844;8.966;2023-12-29T09:44:45;8.77;;;4.90;;
58384;SDS011;44185;47.844;8.966;2023-12-29T09:47:15;10.75;;;4.90;;
58384;SDS011;44185;47.844;8.966;2023-12-29T09:49:45;8.25;;;4.38;;
58384;SDS011;44185;47.844;8.966;2023-12-29T09:52:11;10.15;;;4.43;;
58384;SDS011;44185;47.844;8.966;2023-12-29T09:54:38;6.50;;;3.95;;
58384;SDS011;44185;47.844;8.966;2023-12-29T09:57:05;10.00;;;4.68;;
58384;SDS011;44185;47.844;8.966;2023-12-29T09:59:30;9.40;;;4.25;;
58384;SDS011;44185;47.844;8.966;2023-12-29T10:01:59;7.55;;;4.28;;
58384;SDS011;44185;47.844;8.966;2023-12-29T10:04:26;11.38;;;4.40;;
58384;SDS011;44185;47.844;8.966;2023-12-29T10:06:51;8.07;;;4.60;;
58384;SDS011;44185;47.844;8.966;2023-12-29T10:09:19;7.32;;;3.95;;
58384;SDS011;44185;47.844;8.966;2023-12-29T10:11:46;6.90;;;4.30;;
58384;SDS011;44185;47.844;8.966;2023-12-29T10:14:15;8.85;;;4.55;;
58384;SDS011;44185;47.844;8.966;2023-12-29T10:16:50;8.20;;;4.50;;
58384;SDS011;44185;47.844;8.966;2023-12-29T10:21:51;6.45;;;3.85;;
58384;SDS011;44185;47.844;8.966;2023-12-29T10:24:21;7.45;;;4.38;;
58384;SDS011;44185;47.844;8.966;2023-12-29T10:26:47;5.75;;;3.70;;
58384;SDS011;44185;47.844;8.966;2023-12-29T10:29:13;9.00;;;4.25;;
58384;SDS011;44185;47.844;8.966;2023-12-29T10:31:39;6.47;;;3.47;;
58384;SDS011;44185;47.844;8.966;2023-12-29T10:34:16;7.18;;;4.25;;
58384;SDS011;44185;47.844;8.966;2023-12-29T10:36:46;8.95;;;4.10;;
58384;SDS011;44185;47.844;8.966;2023-12-29T10:39:13;6.93;;;3.80;;
58384;SDS011;44185;47.844;8.966;2023-12-29T10:41:38;8.77;;;4.35;;
58384;SDS011;44185;47.844;8.966;2023-12-29T10:44:06;11.48;;;4.43;;
58384;SDS011;44185;47.844;8.966;2023-12-29T10:46:32;12.75;;;4.55;;
58384;SDS011;44185;47.844;8.966;2023-12-29T10:48:59;4.78;;;3.25;;
58384;SDS011;44185;47.844;8.966;2023-12-29T10:51:32;6.28;;;3.25;;
58384;SDS011;44185;47.844;8.966;2023-12-29T10:53:57;8.30;;;3.70;;
58384;SDS011;44185;47.844;8.966;2023-12-29T10:56:24;4.35;;;3.13;;
58384;SDS011;44185;47.844;8.966;2023-12-29T10:58:56;6.60;;;3.72;;
58384;SDS011;44185;47.844;8.966;2023-12-29T11:01:22;7.03;;;3.92;;
58384;SDS011;44185;47.844;8.966;2023-12-29T11:03:56;3.83;;;3.03;;
58384;SDS011;44185;47.844;8.966;2023-12-29T11:06:22;5.47;;;3.38;;
58384;SDS011;44185;47.844;8.966;2023-12-29T11:08:48;4.40;;;3.00;;
58384;SDS011;44185;47.844;8.966;2023-12-29T11:11:14;4.65;;;3.20;;
58384;SDS011;44185;47.844;8.966;2023-12-29T11:13:41;6.80;;;3.20;;
58384;SDS011;44185;47.844;8.966;2023-12-29T11:16:07;6.57;;;3.67;;
58384;SDS011;44185;47.844;8.966;2023-12-29T11:18:33;6.50;;;3.67;;
58384;SDS011;44185;47.844;8.966;2023-12-29T11:20:59;7.97;;;3.97;;
58384;SDS011;44185;47.844;8.966;2023-12-29T11:23:26;5.82;;;3.70;;
58384;SDS011;44185;47.844;8.966;2023-12-29T11:25:51;5.32;;;3.65;;
58384;SDS011;44185;47.844;8.966;2023-12-29T11:28:17;5.70;;;3.55;;
58384;SDS011;44185;47.844;8.966;2023-12-29T11:30:44;9.77;;;3.60;;
58384;SDS011;44185;47.844;8.966;2023-12-29T11:33:10;4.97;;;3.10;;
58384;SDS011;44185;47.844;8.966;2023-12-29T11:35:42;5.03;;;3.08;;
58384;SDS011;44185;47.844;8.966;2023-12-29T11:38:16;3.55;;;2.60;;
58384;SDS011;44185;47.844;8.966;2023-12-29T11:40:50;5.00;;;2.70;;
58384;SDS011;44185;47.844;8.966;2023-12-29T11:43:22;5.05;;;3.30;;
58384;SDS011;44185;47.844;8.966;2023-12-29T11:45:49;3.92;;;2.30;;
58384;SDS011;44185;47.844;8.966;2023-12-29T11:48:15;4.85;;;2.88;;
58384;SDS011;44185;47.844;8.966;2023-12-29T11:51:27;4.00;;;2.70;;
58384;SDS011;44185;47.844;8.966;2023-12-29T11:53:53;4.53;;;3.13;;
58384;SDS011;44185;47.844;8.966;2023-12-29T11:56:18;3.70;;;2.75;;
58384;SDS011;44185;47.844;8.966;2023-12-29T11:58:44;3.10;;;2.13;;
58384;SDS011;44185;47.844;8.966;2023-12-29T12:01:09;3.65;;;2.60;;
58384;SDS011;44185;47.844;8.966;2023-12-29T12:03:35;3.67;;;2.78;;
58384;SDS011;44185;47.844;8.966;2023-12-29T12:06:02;6.78;;;3.35;;
58384;SDS011;44185;47.844;8.966;2023-12-29T12:08:29;5.18;;;3.03;;
58384;SDS011;44185;47.844;8.966;2023-12-29T12:10:56;5.70;;;3.00;;
58384;SDS011;44185;47.844;8.966;2023-12-29T12:13:42;4.63;;;2.90;;
58384;SDS011;44185;47.844;8.966;2023-12-29T12:16:07;4.93;;;2.88;;
58384;SDS011;44185;47.844;8.966;2023-12-29T12:18:33;5.10;;;2.80;;
58384;SDS011;44185;47.844;8.966;2023-12-29T12:20:59;3.72;;;2.50;;
58384;SDS011;44185;47.844;8.966;2023-12-29T12:23:27;4.45;;;2.78;;
58384;SDS011;44185;47.844;8.966;2023-12-29T12:25:58;4.77;;;2.60;;
58384;SDS011;44185;47.844;8.966;2023-12-29T12:28:26;4.88;;;2.80;;
58384;SDS011;44185;47.844;8.966;2023-12-29T12:30:52;3.33;;;2.30;;
58384;SDS011;44185;47.844;8.966;2023-12-29T12:33:17;4.40;;;2.80;;
58384;SDS011;44185;47.844;8.966;2023-12-29T12:35:42;6.38;;;2.55;;
58384;SDS011;44185;47.844;8.966;2023-12-29T12:38:08;3.85;;;2.38;;
58384;SDS011;44185;47.844;8.966;2023-12-29T12:40:37;3.17;;;2.30;;
58384;SDS011;44185;47.844;8.966;2023-12-29T12:43:03;1.95;;;1.80;;
58384;SDS011;44185;47.844;8.966;2023-12-29T12:45:29;2.05;;;1.67;;
58384;SDS011;44185;47.844;8.966;2023-12-29T12:48:00;6.60;;;2.85;;
58384;SDS011;44185;47.844;8.966;2023-12-29T12:50:28;5.00;;;2.43;;
58384;SDS011;44185;47.844;8.966;2023-12-29T12:52:55;3.78;;;2.08;;
58384;SDS011;44185;47.844;8.966;2023-12-29T12:55:21;3.50;;;2.47;;
58384;SDS011;44185;47.844;8.966;2023-12-29T12:57:48;5.13;;;2.72;;
58384;SDS011;44185;47.844;8.966;2023-12-29T13:00:14;4.05;;;2.47;;
58384;SDS011;44185;47.844;8.966;2023-12-29T13:02:39;3.53;;;2.72;;
58384;SDS011;44185;47.844;8.966;2023-12-29T13:05:05;5.10;;;2.78;;
58384;SDS011;44185;47.844;8.966;2023-12-29T13:07:31;2.95;;;2.28;;
58384;SDS011;44185;47.844;8.966;2023-12-29T13:09:57;3.28;;;2.25;;
58384;SDS011;44185;47.844;8.966;2023-12-29T13:12:22;5.00;;;2.40;;
58384;SDS011;44185;47.844;8.966;2023-12-29T13:14:49;5.28;;;2.70;;
58384;SDS011;44185;47.844;8.966;2023-12-29T13:17:15;4.40;;;2.22;;
58384;SDS011;44185;47.844;8.966;2023-12-29T13:19:40;3.33;;;2.50;;
58384;SDS011;44185;47.844;8.966;2023-12-29T13:22:06;3.50;;;2.55;;
58384;SDS011;44185;47.844;8.966;2023-12-29T13:24:34;4.80;;;3.03;;
58384;SDS011;44185;47.844;8.966;2023-12-29T13:27:02;4.53;;;2.25;;
58384;SDS011;44185;47.844;8.966;2023-12-29T13:29:29;5.90;;;2.67;;
58384;SDS011;44185;47.844;8.966;2023-12-29T13:31:58;3.47;;;2.58;;
58384;SDS011;44185;47.844;8.966;2023-12-29T13:34:27;6.60;;;3.05;;
58384;SDS011;44185;47.844;8.966;2023-12-29T13:37:00;5.55;;;2.80;;
58384;SDS011;44185;47.844;8.966;2023-12-29T13:39:29;6.65;;;3.00;;
58384;SDS011;44185;47.844;8.966;2023-12-29T13:42:04;4.40;;;2.95;;
58384;SDS011;44185;47.844;8.966;2023-12-29T13:44:31;5.10;;;3.20;;
58384;SDS011;44185;47.844;8.966;2023-12-29T13:46:59;7.45;;;4.03;;
58384;SDS011;44185;47.844;8.966;2023-12-29T13:49:24;3.90;;;2.70;;
58384;SDS011;44185;47.844;8.966;2023-12-29T13:51:50;3.78;;;2.40;;
58384;SDS011;44185;47.844;8.966;2023-12-29T13:54:16;4.80;;;3.00;;
58384;SDS011;44185;47.844;8.966;2023-12-29T13:56:50;12.18;;;5.45;;
58384;SDS011;44185;47.844;8.966;2023-12-29T13:59:16;3.05;;;1.80;;
58384;SDS011;44185;47.844;8.966;2023-12-29T14:01:41;2.97;;;2.25;;
58384;SDS011;44185;47.844;8.966;2023-12-29T14:04:08;4.68;;;3.03;;
58384;SDS011;44185;47.844;8.966;2023-12-29T14:09:04;4.43;;;2.55;;
58384;SDS011;44185;47.844;8.966;2023-12-29T14:11:29;4.28;;;2.95;;
58384;SDS011;44185;47.844;8.966;2023-12-29T14:13:55;2.17;;;1.73;;
58384;SDS011;44185;47.844;8.966;2023-12-29T14:16:20;4.05;;;2.17;;
58384;SDS011;44185;47.844;8.966;2023-12-29T14:18:53;8.07;;;3.50;;
58384;SDS011;44185;47.844;8.966;2023-12-29T14:21:21;4.38;;;2.47;;
58384;SDS011;44185;47.844;8.966;2023-12-29T14:24:01;6.63;;;2.47;;
58384;SDS011;44185;47.844;8.966;2023-12-29T14:26:31;5.43;;;2.97;;
58384;SDS011;44185;47.844;8.966;2023-12-29T14:29:00;5.53;;;3.03;;
58384;SDS011;44185;47.844;8.966;2023-12-29T14:31:26;5.95;;;3.08;;
58384;SDS011;44185;47.844;8.966;2023-12-29T14:33:52;5.75;;;3.08;;
58384;SDS011;44185;47.844;8.966;2023-12-29T14:36:17;3.78;;;2.53;;
58384;SDS011;44185;47.844;8.966;2023-12-29T14:38:44;4.77;;;2.77;;
58384;SDS011;44185;47.844;8.966;2023-12-29T14:41:10;4.95;;;3.08;;